EGPK - Prestwick Airport
Distance from station: E 5mi, 14km
Updated: 06/20/2018 8:20am
Partly Cloudy
Partly Cloudy
 Wind from NW
Wind: NW 16 mph , 26 km/h
Temperature: 57°F , 14°C
Dew Point: 41°F , 5°C
Humidity: 55%
Barometer: 30.09 inHg , 1019 hPa
Clouds: Partly Cloudy
Visibility: 6 miles , 10 km
Cloud details: Partly Cloudy 4000 ft
2018/06/20 15:20 EGPK 201520Z 31014KT 9999 SCT040 14/05 Q1019